Thursday, October 19, 2017, 7:06 AM EDT
Back to Local

KAGC, Pittsburgh Allegheny Cty.

Location: West Mifflin, PA, United States Lat: 40.35
Local Time: 7:06 AM EDT (11:06 GMT) Lon: -79.917
Time Zone: US/Eastern Elev: 1253 ft

Show me the last for .
Show Decoded

2017-10-19 06:53 METAR KAGC 191053Z 18009KT 10SM CLR 08/03 A3022 RMK AO2 SLP236 T00830028 =
2017-10-19 05:53 METAR KAGC 190953Z 18007KT 10SM CLR 09/02 A3021 RMK AO2 SLP234 T00890022 =
2017-10-19 04:53 METAR KAGC 190853Z 17008KT 9SM CLR 08/04 A3020 RMK AO2 SLP231 T00780044 58001 =
2017-10-19 03:53 METAR KAGC 190753Z 18007KT 10SM CLR 09/03 A3021 RMK AO2 SLP232 T00940028 =
2017-10-19 02:53 METAR KAGC 190653Z 17007KT 10SM CLR 09/03 A3021 RMK AO2 SLP232 T00940033 =
2017-10-19 01:53 METAR KAGC 190553Z 20006KT 10SM CLR 11/03 A3021 RMK AO2 SLP232 T01110028 10183
                 20106 55004 =
2017-10-19 00:53 METAR KAGC 190453Z 18007KT 10SM CLR 12/03 A3020 RMK AO2 SLP232 T01170033
                 402110044 =
2017-10-18 23:53 METAR KAGC 190353Z 16007KT 10SM CLR 11/05 A3021 RMK AO2 SLP234 T01110050 =
2017-10-18 22:53 METAR KAGC 190253Z 16006KT 10SM CLR 13/06 A3022 RMK AO2 SLP237 T01280056 58001 =
2017-10-18 21:53 METAR KAGC 190153Z 16006KT 10SM CLR 13/05 A3023 RMK AO2 SLP241 T01330050 =
2017-10-18 20:53 METAR KAGC 190053Z 19004KT 10SM CLR 17/03 A3023 RMK AO2 SLP242 T01720028 =
2017-10-18 19:53 METAR KAGC 182353Z 21003KT 10SM CLR 18/02 A3022 RMK AO2 SLP241 T01830022 10211
                 20183 56001 =
2017-10-18 18:53 METAR KAGC 182253Z 21005KT 10SM CLR 19/03 A3023 RMK AO2 SLP241 T01890028 =
2017-10-18 17:53 METAR KAGC 182153Z 20005KT 10SM CLR 20/03 A3022 RMK AO2 SLP238 T02000033 =
2017-10-18 16:53 METAR KAGC 182053Z 20010KT 10SM CLR 21/02 A3023 RMK AO2 SLP240 T02060022 56023 =
2017-10-18 15:53 METAR KAGC 181953Z 17006KT 10SM CLR 21/02 A3024 RMK AO2 SLP246 T02060022 =
2017-10-18 14:53 METAR KAGC 181853Z 16005KT 10SM CLR 20/04 A3027 RMK AO2 SLP253 T02000039 =
2017-10-18 13:53 METAR KAGC 181753Z 18004KT 10SM CLR 19/04 A3030 RMK AO2 SLP264 T01890044 10194
                 20056 58019 =
2017-10-18 12:53 METAR KAGC 181653Z VRB03KT 10SM CLR 17/04 A3033 RMK AO2 SLP276 T01720044 =
2017-10-18 11:53 METAR KAGC 181553Z 00000KT 10SM CLR 16/04 A3035 RMK AO2 SLP283 T01560039 =
2017-10-18 10:53 METAR KAGC 181453Z 15004KT 10SM CLR 14/04 A3035 RMK AO2 SLP286 T01390044 50007 =
2017-10-18 09:53 METAR KAGC 181353Z 17003KT 10SM CLR 11/04 A3036 RMK AO2 SLP289 T01060044 =
2017-10-18 08:53 METAR KAGC 181253Z 16003KT 7SM CLR 07/04 A3036 RMK AO2 SLP289 T00720039 =
2017-10-18 07:53 METAR KAGC 181153Z 17007KT 8SM CLR 06/03 A3033 RMK AO2 SLP280 T00560033 10089
                 20044 51008 =
2017-10-18 07:44 METAR KAGC 181144Z 17006KT 3SM BR CLR 05/03 A3033 RMK AO2 T00500028 =
2017-10-18 07:34 METAR KAGC 181134Z 17007KT 1 3/4SM BR CLR 04/02 A3033 RMK AO2 T00440022 =

Support USWX by starting your Amazon purchase here.